createdAt,value
2019-01-12T00:00:32.866Z,49.46
2019-01-12T00:05:29.797Z,49.30
2019-01-12T00:10:26.982Z,49.20
2019-01-12T00:15:23.888Z,48.91
2019-01-12T00:20:20.851Z,48.91
2019-01-12T00:25:17.761Z,48.90
2019-01-12T00:30:14.925Z,48.52
2019-01-12T00:35:11.883Z,48.61
2019-01-12T00:40:09.118Z,47.62
2019-01-12T00:45:10.397Z,47.21
2019-01-12T00:50:12.177Z,47.17
2019-01-12T00:55:09.283Z,47.12
2019-01-12T01:00:17.060Z,46.67
2019-01-12T01:10:32.360Z,46.00
2019-01-12T01:15:29.286Z,45.29
2019-01-12T01:20:26.215Z,45.45
2019-01-12T01:25:23.135Z,46.32
2019-01-12T01:30:20.099Z,45.88
2019-01-12T01:35:17.043Z,45.96
2019-01-12T01:40:15.995Z,47.79
2019-01-12T01:45:15.397Z,48.20
2019-01-12T01:50:14.074Z,49.39
2019-01-12T01:55:10.993Z,49.17
2019-01-12T02:00:14.759Z,50.18
2019-01-12T02:05:12.082Z,49.29
2019-01-12T02:10:16.694Z,49.67
2019-01-12T02:15:16.310Z,49.37
2019-01-12T02:20:13.550Z,48.89
2019-01-12T02:25:10.674Z,48.16
2019-01-12T02:30:20.639Z,49.64
2019-01-12T02:35:17.603Z,53.02
2019-01-12T02:40:14.539Z,53.39
2019-01-12T02:45:12.895Z,53.66
2019-01-12T02:50:12.047Z,54.07
2019-01-12T02:55:09.457Z,55.03
2019-01-12T03:00:13.909Z,55.48
2019-01-12T03:05:11.111Z,56.55
2019-01-12T03:10:11.875Z,55.93
2019-01-12T03:15:12.720Z,56.29
2019-01-12T03:20:13.240Z,56.47
2019-01-12T03:25:18.014Z,56.25
2019-01-12T03:30:14.735Z,56.65
2019-01-12T03:35:11.821Z,57.08
2019-01-12T03:40:15.396Z,57.28
2019-01-12T03:45:15.340Z,56.98
2019-01-12T03:50:14.281Z,56.93
2019-01-12T03:55:11.404Z,56.30
2019-01-12T04:00:18.412Z,57.70
2019-01-12T04:05:15.333Z,57.46
2019-01-12T04:10:13.342Z,57.41
2019-01-12T04:15:12.240Z,57.55
2019-01-12T04:20:14.707Z,57.72
2019-01-12T04:25:11.622Z,57.64
2019-01-12T04:30:14.812Z,57.31
2019-01-12T04:35:12.315Z,57.32
2019-01-12T04:40:15.541Z,56.95
2019-01-12T04:45:12.550Z,57.04
2019-01-12T04:50:12.731Z,56.91
2019-01-12T04:55:09.937Z,57.27
2019-01-12T05:00:11.596Z,56.95
2019-01-12T05:05:08.516Z,56.77
2019-01-12T05:10:09.369Z,56.85
2019-01-12T05:15:10.196Z,57.50
2019-01-12T05:20:11.949Z,57.61
2019-01-12T05:25:08.864Z,57.22
2019-01-12T05:30:13.573Z,57.36
2019-01-12T05:35:10.474Z,57.46
2019-01-12T05:40:08.338Z,57.82
2019-01-12T05:45:08.433Z,57.52
2019-01-12T05:50:09.017Z,57.90
2019-01-12T05:55:07.623Z,58.09
2019-01-12T06:00:17.745Z,57.54
2019-01-12T06:05:14.663Z,57.95
2019-01-12T06:10:12.744Z,57.72
2019-01-12T06:15:11.645Z,57.48
2019-01-12T06:20:12.718Z,56.91
2019-01-12T06:25:09.661Z,56.72
2019-01-12T06:30:11.709Z,56.54
2019-01-12T06:35:08.623Z,56.91
2019-01-12T06:40:10.179Z,56.90
2019-01-12T06:45:11.209Z,57.08
2019-01-12T06:50:12.109Z,57.22
2019-01-12T06:55:09.621Z,56.96
2019-01-12T07:00:18.582Z,56.55
2019-01-12T07:05:15.682Z,57.26
2019-01-12T07:10:14.449Z,57.22
2019-01-12T07:15:13.076Z,57.15
2019-01-12T07:20:15.347Z,56.75
2019-01-12T07:25:12.442Z,56.45
2019-01-12T07:30:14.542Z,56.23
2019-01-12T07:35:11.532Z,56.84
2019-01-12T07:40:09.610Z,56.27
2019-01-12T07:45:08.311Z,55.75
2019-01-12T07:50:11.556Z,55.09
2019-01-12T07:55:09.166Z,55.25
2019-01-12T08:00:15.578Z,55.12
2019-01-12T08:05:13.787Z,55.32
2019-01-12T08:10:15.278Z,55.63
2019-01-12T08:15:12.698Z,55.06
2019-01-12T08:20:10.351Z,54.80
2019-01-12T08:25:08.966Z,54.68
2019-01-12T08:30:13.271Z,54.28
2019-01-12T08:35:10.621Z,53.95
2019-01-12T08:40:10.419Z,53.73
2019-01-12T08:45:09.854Z,53.65
2019-01-12T08:50:11.709Z,53.29
2019-01-12T08:55:10.355Z,52.74
2019-01-12T09:00:17.974Z,53.09
2019-01-12T09:05:15.216Z,53.07
2019-01-12T09:10:15.583Z,53.12
2019-01-12T09:15:12.485Z,53.03
2019-01-12T09:20:12.801Z,52.46
2019-01-12T09:25:10.718Z,52.33
2019-01-12T09:30:12.491Z,52.41
2019-01-12T09:35:09.509Z,52.31
2019-01-12T09:40:11.938Z,51.65
2019-01-12T09:45:11.543Z,50.91
2019-01-12T09:50:15.262Z,50.75
2019-01-12T09:55:12.189Z,50.71
2019-01-12T10:00:20.384Z,50.38
2019-01-12T10:05:17.302Z,49.78
2019-01-12T10:10:19.711Z,49.88
2019-01-12T10:15:19.695Z,49.66
2019-01-12T10:20:32.438Z,49.60
2019-01-12T10:25:29.338Z,50.11
2019-01-12T10:30:28.618Z,49.79
2019-01-12T10:35:25.559Z,49.77
2019-01-12T10:40:23.531Z,49.63
2019-01-12T10:45:21.545Z,49.57
2019-01-12T10:50:23.367Z,50.26
2019-01-12T10:55:20.502Z,49.68
2019-01-12T11:00:25.167Z,49.90
2019-01-12T11:05:22.066Z,49.78
2019-01-12T11:10:19.306Z,50.26
2019-01-12T11:15:21.130Z,50.13
2019-01-12T11:20:18.144Z,49.62
2019-01-12T11:25:15.624Z,49.19
2019-01-12T11:30:16.665Z,48.70
2019-01-12T11:35:13.686Z,48.80
2019-01-12T11:40:15.703Z,48.60
2019-01-12T11:45:13.414Z,48.15
2019-01-12T11:50:13.425Z,48.99
2019-01-12T11:55:12.543Z,49.15
2019-01-12T12:00:20.197Z,49.24
2019-01-12T12:05:17.409Z,49.39
2019-01-12T12:10:16.386Z,49.26
2019-01-12T12:15:15.989Z,49.43
2019-01-12T12:20:20.312Z,49.92
2019-01-12T12:25:17.421Z,49.36
2019-01-12T12:30:21.375Z,49.16
2019-01-12T12:35:18.309Z,49.78
2019-01-12T12:40:18.698Z,49.88
2019-01-12T12:45:22.770Z,49.58
2019-01-12T12:50:19.777Z,49.55
2019-01-12T12:55:18.027Z,49.78
2019-01-12T13:00:19.512Z,49.83
2019-01-12T13:05:16.650Z,49.90
2019-01-12T13:10:17.951Z,50.41
2019-01-12T13:15:15.314Z,50.27
2019-01-12T13:20:16.205Z,50.24
2019-01-12T13:25:14.830Z,50.25
2019-01-12T13:30:20.047Z,50.00
2019-01-12T13:35:17.088Z,49.85
2019-01-12T13:40:21.751Z,50.13
2019-01-12T13:45:20.009Z,50.47
2019-01-12T13:50:20.366Z,50.32
2019-01-12T13:55:17.284Z,50.58
2019-01-12T14:00:27.721Z,51.13
2019-01-12T14:05:24.677Z,51.13
2019-01-12T14:10:23.550Z,51.51
2019-01-12T14:15:20.770Z,51.65
2019-01-12T14:20:27.647Z,51.81
2019-01-12T14:25:24.905Z,51.68
2019-01-12T14:30:21.863Z,51.73
2019-01-12T14:35:18.962Z,51.95
2019-01-12T14:40:20.162Z,52.66
2019-01-12T14:45:22.107Z,52.93
2019-01-12T14:50:19.422Z,52.75
2019-01-12T14:55:19.452Z,52.99
2019-01-12T15:00:25.423Z,52.69
2019-01-12T15:05:25.396Z,52.88
2019-01-12T15:10:22.408Z,52.64
2019-01-12T15:15:19.875Z,52.65
2019-01-12T15:20:25.796Z,53.58
2019-01-12T15:25:22.719Z,53.30
2019-01-12T15:30:23.721Z,53.05
2019-01-12T15:35:24.175Z,53.27
2019-01-12T15:40:22.215Z,53.24
2019-01-12T15:45:24.755Z,53.20
2019-01-12T15:50:24.192Z,53.26
2019-01-12T15:55:21.491Z,53.21
2019-01-12T16:00:27.663Z,53.85
2019-01-12T16:05:24.675Z,53.66
2019-01-12T16:10:21.639Z,54.05
2019-01-12T16:15:21.501Z,53.78
2019-01-12T16:20:31.582Z,54.11
2019-01-12T16:25:28.493Z,53.94
2019-01-12T16:30:25.460Z,54.77
2019-01-12T16:35:22.363Z,54.71
2019-01-12T16:40:22.738Z,54.79
2019-01-12T16:45:19.739Z,54.26
2019-01-12T16:50:17.850Z,53.62
2019-01-12T16:55:16.712Z,53.90
2019-01-12T17:00:24.142Z,53.71
2019-01-12T17:05:21.749Z,53.61
2019-01-12T17:10:21.320Z,53.55
2019-01-12T17:15:20.562Z,53.43
2019-01-12T17:20:23.324Z,53.57
2019-01-12T17:25:20.621Z,53.20
2019-01-12T17:30:23.499Z,53.43
2019-01-12T17:35:20.831Z,53.29
2019-01-12T17:40:18.059Z,53.16
2019-01-12T17:45:20.041Z,53.00
2019-01-12T17:50:20.141Z,52.99
2019-01-12T17:55:21.318Z,53.24
2019-01-12T18:00:31.413Z,53.28
2019-01-12T18:05:28.330Z,53.22
2019-01-12T18:10:25.303Z,53.27
2019-01-12T18:15:23.650Z,53.57
2019-01-12T18:20:20.692Z,53.33
2019-01-12T18:25:18.022Z,53.35
2019-01-12T18:30:23.851Z,53.38
2019-01-12T18:35:21.052Z,53.01
2019-01-12T18:40:19.996Z,53.05
2019-01-12T18:45:19.292Z,53.49
2019-01-12T18:50:20.128Z,53.08
2019-01-12T18:55:17.406Z,53.40
2019-01-12T19:00:23.551Z,52.84
2019-01-12T19:05:20.471Z,52.82
2019-01-12T19:10:17.713Z,52.92
2019-01-12T19:15:22.380Z,52.75
2019-01-12T19:20:20.020Z,52.84
2019-01-12T19:25:17.472Z,53.37
2019-01-12T19:30:19.804Z,53.00
2019-01-12T19:35:17.119Z,52.74
2019-01-12T19:40:17.515Z,53.00
2019-01-12T19:45:15.534Z,53.37
2019-01-12T19:50:22.161Z,52.84
2019-01-12T19:55:20.131Z,53.16
2019-01-12T20:00:22.443Z,52.67
2019-01-12T20:10:36.243Z,53.20
2019-01-12T20:15:33.155Z,52.63
2019-01-12T20:20:30.310Z,53.48
2019-01-12T20:25:27.528Z,52.91
2019-01-12T20:31:06.687Z,53.72
2019-01-12T20:36:20.750Z,54.09
2019-01-12T20:41:29.256Z,54.01
2019-01-12T20:46:43.470Z,53.69
2019-01-12T20:51:59.069Z,54.37
2019-01-12T20:57:20.875Z,54.58
2019-01-12T21:02:35.243Z,54.84
2019-01-12T21:07:40.715Z,55.44
2019-01-12T21:12:51.999Z,56.26
2019-01-12T21:17:48.931Z,55.83
2019-01-12T21:22:45.888Z,56.06
2019-01-12T21:27:42.818Z,55.56
2019-01-12T21:32:39.765Z,55.01
2019-01-12T21:37:37.106Z,55.85
2019-01-12T21:42:34.074Z,55.92
2019-01-12T21:47:30.970Z,56.20
2019-01-12T21:52:27.965Z,56.14
2019-01-12T21:57:24.889Z,56.51
2019-01-12T22:02:21.862Z,55.64
2019-01-12T22:07:18.788Z,55.63
2019-01-12T22:12:15.749Z,55.20
2019-01-12T22:17:12.753Z,54.59
2019-01-12T22:22:09.749Z,54.40
2019-01-12T22:27:06.666Z,54.21
2019-01-12T22:32:03.718Z,54.67
2019-01-12T22:37:00.667Z,54.33
2019-01-12T22:41:57.624Z,54.38
2019-01-12T22:46:54.536Z,54.55
2019-01-12T22:51:51.485Z,53.97
2019-01-12T22:56:48.645Z,53.77
2019-01-12T23:01:46.815Z,53.22
2019-01-12T23:06:43.718Z,53.62
2019-01-12T23:11:40.716Z,53.92
2019-01-12T23:16:37.630Z,54.63
2019-01-12T23:21:34.580Z,54.86
2019-01-12T23:26:31.617Z,55.06
2019-01-12T23:31:28.546Z,55.78
2019-01-12T23:36:25.464Z,55.73
2019-01-12T23:41:22.406Z,56.05
2019-01-12T23:46:19.312Z,55.86
2019-01-12T23:51:16.482Z,55.92
2019-01-12T23:56:13.418Z,56.19
